createdAt,value
2023-05-09T00:00:50.080Z,12.67
2023-05-09T00:03:19.543Z,12.65
2023-05-09T00:05:48.002Z,12.64
2023-05-09T00:08:16.170Z,12.62
2023-05-09T00:10:44.650Z,12.60
2023-05-09T00:13:13.983Z,12.60
2023-05-09T00:15:42.197Z,12.57
2023-05-09T00:18:11.167Z,12.54
2023-05-09T00:20:40.992Z,12.53
2023-05-09T00:23:09.111Z,12.48
2023-05-09T00:25:37.283Z,12.43
2023-05-09T00:28:05.844Z,12.38
2023-05-09T00:30:33.977Z,12.34
2023-05-09T00:33:02.202Z,12.31
2023-05-09T00:35:32.274Z,12.28
2023-05-09T00:38:01.745Z,12.25
2023-05-09T00:40:29.855Z,12.24
2023-05-09T00:43:00.448Z,12.20
2023-05-09T00:45:28.565Z,12.18
2023-05-09T00:47:57.370Z,12.14
2023-05-09T00:50:25.717Z,12.10
2023-05-09T00:52:53.937Z,12.08
2023-05-09T00:55:24.448Z,12.05
2023-05-09T00:57:52.544Z,12.01
2023-05-09T01:00:20.690Z,11.98
2023-05-09T01:02:53.067Z,11.95
2023-05-09T01:05:22.302Z,11.95
2023-05-09T01:07:58.563Z,11.92
2023-05-09T01:10:33.079Z,11.91
2023-05-09T01:13:05.895Z,11.91
2023-05-09T01:15:38.371Z,11.91
2023-05-09T01:18:12.810Z,11.86
2023-05-09T01:20:45.648Z,11.82
2023-05-09T01:23:30.257Z,11.78
2023-05-09T01:26:04.284Z,11.72
2023-05-09T01:28:42.758Z,11.66
2023-05-09T01:31:12.290Z,11.63
2023-05-09T01:33:43.683Z,11.60
2023-05-09T01:36:16.141Z,11.59
2023-05-09T01:38:45.286Z,11.57
2023-05-09T01:41:14.445Z,11.55
2023-05-09T01:43:44.050Z,11.50
2023-05-09T01:46:14.102Z,11.46
2023-05-09T01:48:43.218Z,11.43
2023-05-09T01:51:12.363Z,11.41
2023-05-09T01:53:41.234Z,11.39
2023-05-09T01:56:10.525Z,11.36
2023-05-09T02:01:15.826Z,11.28
2023-05-09T02:03:46.231Z,11.20
2023-05-09T02:06:14.965Z,11.17
2023-05-09T02:08:43.712Z,11.13
2023-05-09T02:11:11.971Z,11.10
2023-05-09T02:13:40.227Z,11.10
2023-05-09T02:16:09.230Z,11.08
2023-05-09T02:18:38.713Z,11.07
2023-05-09T02:21:07.307Z,11.05
2023-05-09T02:23:35.693Z,11.03
2023-05-09T02:26:04.268Z,10.99
2023-05-09T02:28:32.760Z,10.94
2023-05-09T02:31:03.401Z,10.92
2023-05-09T02:33:35.001Z,10.89
2023-05-09T02:36:05.900Z,10.87
2023-05-09T02:38:34.377Z,10.86
2023-05-09T02:41:02.540Z,10.84
2023-05-09T02:43:45.901Z,10.81
2023-05-09T02:46:14.083Z,10.78
2023-05-09T02:48:42.198Z,10.73
2023-05-09T02:51:11.706Z,10.70
2023-05-09T02:53:39.762Z,10.67
2023-05-09T02:56:08.893Z,10.65
2023-05-09T02:58:36.971Z,10.63
2023-05-09T03:01:05.138Z,10.59
2023-05-09T03:03:34.669Z,10.56
2023-05-09T03:06:02.985Z,10.53
2023-05-09T03:08:32.429Z,10.49
2023-05-09T03:11:00.484Z,10.44
2023-05-09T03:13:28.530Z,10.43
2023-05-09T03:15:56.641Z,10.41
2023-05-09T03:18:24.849Z,10.41
2023-05-09T03:20:52.962Z,10.40
2023-05-09T03:23:21.019Z,10.39
2023-05-09T03:25:50.536Z,10.34
2023-05-09T03:32:00.105Z,10.31
2023-05-09T03:34:28.249Z,10.27
2023-05-09T03:36:56.356Z,10.22
2023-05-09T03:39:24.451Z,10.18
2023-05-09T03:41:53.939Z,10.14
2023-05-09T03:44:22.019Z,10.12
2023-05-09T03:46:50.190Z,10.12
2023-05-09T03:49:18.324Z,10.10
2023-05-09T03:51:46.415Z,10.06
2023-05-09T03:54:14.502Z,10.05
2023-05-09T03:56:42.660Z,10.02
2023-05-09T03:59:12.137Z,10.01
2023-05-09T04:01:40.902Z,9.99
2023-05-09T04:04:09.107Z,10.00
2023-05-09T04:06:37.531Z,10.02
2023-05-09T04:09:05.822Z,10.01
2023-05-09T04:11:33.931Z,10.02
2023-05-09T04:14:03.252Z,10.06
2023-05-09T04:16:32.911Z,10.08
2023-05-09T04:19:01.018Z,10.11
2023-05-09T04:21:29.128Z,10.11
2023-05-09T04:23:57.207Z,10.13
2023-05-09T04:26:25.899Z,10.17
2023-05-09T04:28:54.022Z,10.20
2023-05-09T04:31:23.209Z,10.22
2023-05-09T04:33:52.814Z,10.25
2023-05-09T04:36:21.125Z,10.29
2023-05-09T04:38:49.753Z,10.33
2023-05-09T04:41:17.868Z,10.37
2023-05-09T04:43:45.993Z,10.44
2023-05-09T04:46:14.156Z,10.49
2023-05-09T04:48:42.534Z,10.59
2023-05-09T04:51:12.189Z,10.75
2023-05-09T04:53:40.454Z,10.87
2023-05-09T04:56:08.862Z,10.98
2023-05-09T04:58:38.457Z,11.05
2023-05-09T05:01:06.765Z,11.07
2023-05-09T05:03:34.907Z,11.06
2023-05-09T05:06:03.008Z,11.03
2023-05-09T05:08:32.522Z,11.01
2023-05-09T05:11:00.601Z,11.07
2023-05-09T05:13:28.701Z,11.16
2023-05-09T05:15:57.943Z,11.30
2023-05-09T05:18:26.057Z,11.44
2023-05-09T05:20:54.166Z,11.60
2023-05-09T05:23:22.271Z,11.84
2023-05-09T05:25:51.717Z,12.07
2023-05-09T05:28:19.825Z,12.22
2023-05-09T05:30:47.961Z,12.38
2023-05-09T05:33:16.039Z,12.55
2023-05-09T05:35:44.102Z,12.73
2023-05-09T05:38:12.252Z,12.86
2023-05-09T05:40:40.359Z,12.98
2023-05-09T05:43:09.815Z,13.08
2023-05-09T05:45:37.944Z,13.21
2023-05-09T05:48:06.488Z,13.32
2023-05-09T05:50:34.589Z,13.41
2023-05-09T05:53:02.643Z,13.44
2023-05-09T05:55:30.718Z,13.52
2023-05-09T05:57:58.819Z,13.67
2023-05-09T06:00:28.526Z,13.82
2023-05-09T06:02:56.725Z,13.92
2023-05-09T06:05:24.956Z,13.99
2023-05-09T06:07:53.414Z,14.13
2023-05-09T06:10:21.700Z,14.23
2023-05-09T06:12:49.944Z,14.40
2023-05-09T06:15:18.809Z,14.47
2023-05-09T06:17:48.298Z,14.61
2023-05-09T06:20:16.420Z,14.79
2023-05-09T06:22:44.473Z,14.97
2023-05-09T06:25:12.742Z,15.05
2023-05-09T06:27:40.957Z,15.00
2023-05-09T06:32:41.107Z,15.01
2023-05-09T06:35:10.921Z,15.18
2023-05-09T06:37:39.008Z,15.34
2023-05-09T06:40:08.446Z,15.43
2023-05-09T06:42:36.491Z,15.55
2023-05-09T06:45:04.936Z,15.71
2023-05-09T06:47:33.124Z,15.82
2023-05-09T06:50:01.215Z,15.90
2023-05-09T06:52:30.659Z,16.03
2023-05-09T06:54:58.720Z,16.22
2023-05-09T06:57:26.975Z,16.27
2023-05-09T06:59:55.135Z,16.18
2023-05-09T07:02:23.327Z,16.28
2023-05-09T07:04:51.658Z,16.42
2023-05-09T07:07:19.745Z,16.56
2023-05-09T07:09:50.859Z,16.72
2023-05-09T07:12:21.172Z,16.91
2023-05-09T07:14:49.231Z,16.93
2023-05-09T07:17:23.675Z,16.94
2023-05-09T07:19:52.226Z,16.99
2023-05-09T07:22:20.346Z,16.93
2023-05-09T07:24:50.828Z,16.99
2023-05-09T07:27:18.900Z,17.19
2023-05-09T07:29:49.108Z,17.40
2023-05-09T07:32:17.212Z,17.59
2023-05-09T07:34:45.316Z,17.68
2023-05-09T07:37:14.595Z,17.75
2023-05-09T07:39:44.464Z,17.85
2023-05-09T07:42:13.909Z,18.02
2023-05-09T07:44:41.969Z,18.20
2023-05-09T07:47:10.195Z,18.44
2023-05-09T07:49:38.341Z,18.56
2023-05-09T07:52:06.376Z,18.67
2023-05-09T07:54:34.470Z,18.79
2023-05-09T07:57:02.551Z,18.90
2023-05-09T07:59:32.069Z,18.90
2023-05-09T08:02:00.228Z,18.91
2023-05-09T08:04:28.371Z,18.98
2023-05-09T08:06:56.444Z,19.02
2023-05-09T08:09:24.527Z,19.00
2023-05-09T08:11:52.781Z,19.04
2023-05-09T08:14:20.949Z,19.08
2023-05-09T08:16:50.498Z,19.16
2023-05-09T08:19:18.589Z,19.27
2023-05-09T08:21:46.738Z,19.39
2023-05-09T08:24:14.815Z,19.50
2023-05-09T08:26:42.869Z,19.68
2023-05-09T08:29:10.952Z,19.70
2023-05-09T08:31:39.066Z,19.77
2023-05-09T08:34:08.602Z,19.86
2023-05-09T08:36:36.653Z,19.87
2023-05-09T08:39:04.875Z,19.89
2023-05-09T08:41:36.120Z,19.97
2023-05-09T08:44:04.483Z,20.14
2023-05-09T08:46:37.564Z,20.21
2023-05-09T08:49:06.921Z,20.29
2023-05-09T08:51:36.886Z,20.45
2023-05-09T08:54:06.122Z,20.72
2023-05-09T08:56:35.896Z,20.69
2023-05-09T08:59:05.684Z,20.68
2023-05-09T09:01:34.869Z,20.71
2023-05-09T09:04:04.228Z,20.72
2023-05-09T09:06:34.733Z,20.70
2023-05-09T09:09:07.063Z,20.86
2023-05-09T09:11:36.076Z,21.06
2023-05-09T09:14:08.000Z,21.18
2023-05-09T09:16:36.828Z,21.22
2023-05-09T09:19:06.142Z,21.28
2023-05-09T09:21:34.589Z,21.56
2023-05-09T09:24:04.207Z,21.62
2023-05-09T09:26:32.358Z,21.56
2023-05-09T09:29:00.783Z,21.57
2023-05-09T09:31:33.301Z,21.53
2023-05-09T09:34:03.061Z,21.54
2023-05-09T09:36:32.487Z,21.56
2023-05-09T09:39:01.583Z,21.61
2023-05-09T09:41:34.579Z,21.60
2023-05-09T09:44:08.320Z,21.70
2023-05-09T09:46:43.851Z,21.80
2023-05-09T09:49:12.334Z,21.85
2023-05-09T09:51:40.842Z,21.97
2023-05-09T09:54:10.156Z,22.13
2023-05-09T09:56:46.757Z,22.29
2023-05-09T09:59:15.963Z,22.31
2023-05-09T10:02:03.422Z,22.56
2023-05-09T10:04:36.881Z,22.82
2023-05-09T10:07:06.409Z,23.15
2023-05-09T10:09:36.057Z,23.49
2023-05-09T10:12:06.785Z,23.71
2023-05-09T10:14:36.978Z,23.66
2023-05-09T10:17:06.389Z,23.55
2023-05-09T10:19:36.916Z,23.58
2023-05-09T10:22:06.514Z,23.58
2023-05-09T10:24:36.789Z,23.56
2023-05-09T10:27:11.048Z,23.48
2023-05-09T10:29:41.904Z,23.52
2023-05-09T10:32:20.524Z,23.55
2023-05-09T10:34:50.502Z,23.67
2023-05-09T10:37:18.743Z,23.93
2023-05-09T10:39:47.640Z,24.01
2023-05-09T10:42:17.128Z,24.00
2023-05-09T10:44:45.470Z,24.00
2023-05-09T10:47:13.932Z,24.00
2023-05-09T10:49:42.187Z,24.05
2023-05-09T10:52:10.244Z,24.14
2023-05-09T10:54:38.478Z,24.10
2023-05-09T10:57:10.029Z,24.01
2023-05-09T10:59:42.047Z,24.08
2023-05-09T11:02:14.818Z,24.12
2023-05-09T11:04:44.236Z,24.04
2023-05-09T11:07:25.518Z,23.94
2023-05-09T11:09:54.274Z,23.95
2023-05-09T11:12:24.896Z,24.01
2023-05-09T11:14:56.129Z,24.01
2023-05-09T11:17:32.134Z,24.12
2023-05-09T11:20:03.159Z,24.05
2023-05-09T11:22:32.716Z,24.05
2023-05-09T11:25:04.730Z,24.18
2023-05-09T11:27:44.371Z,24.36
2023-05-09T11:30:15.648Z,24.48
2023-05-09T11:32:48.659Z,24.39
2023-05-09T11:35:18.635Z,24.29
2023-05-09T11:37:48.375Z,24.32
2023-05-09T11:40:18.157Z,24.40
2023-05-09T11:42:49.322Z,24.56
2023-05-09T11:45:19.129Z,24.65
2023-05-09T11:47:47.546Z,24.58
2023-05-09T11:50:17.225Z,24.40
2023-05-09T11:52:45.357Z,24.65
2023-05-09T11:55:15.991Z,24.82
2023-05-09T11:57:45.898Z,24.89
2023-05-09T12:00:16.328Z,24.74
2023-05-09T12:02:47.076Z,24.64
2023-05-09T12:05:16.986Z,24.42
2023-05-09T12:07:45.979Z,24.24
2023-05-09T12:10:16.620Z,24.19
2023-05-09T12:12:46.881Z,24.01
2023-05-09T12:15:15.901Z,24.10
2023-05-09T12:17:47.331Z,24.26
2023-05-09T12:20:16.389Z,24.35
2023-05-09T12:22:45.741Z,24.28
2023-05-09T12:25:14.009Z,23.91
2023-05-09T12:27:42.909Z,23.71
2023-05-09T12:30:13.925Z,23.70
2023-05-09T12:32:42.882Z,23.88
2023-05-09T12:35:12.522Z,24.08
2023-05-09T12:37:40.645Z,24.13
2023-05-09T12:40:13.137Z,24.04
2023-05-09T12:42:45.048Z,23.93
2023-05-09T12:45:13.671Z,23.74
2023-05-09T12:47:42.505Z,23.77
2023-05-09T12:50:13.527Z,23.90
2023-05-09T12:52:58.465Z,23.77
2023-05-09T12:55:31.692Z,23.73
2023-05-09T12:58:01.418Z,23.80
2023-05-09T13:00:29.698Z,24.00
2023-05-09T13:02:57.917Z,24.06
2023-05-09T13:05:27.523Z,24.19
2023-05-09T13:07:58.161Z,24.37
2023-05-09T13:10:28.328Z,24.40
2023-05-09T13:12:56.433Z,24.32
2023-05-09T13:15:26.829Z,24.14
2023-05-09T13:17:55.447Z,24.05
2023-05-09T13:20:23.757Z,23.99
2023-05-09T13:22:53.192Z,23.93
2023-05-09T13:25:21.396Z,23.80
2023-05-09T13:27:49.489Z,23.71
2023-05-09T13:30:18.272Z,23.54
2023-05-09T13:32:47.479Z,23.53
2023-05-09T13:35:16.104Z,23.53
2023-05-09T13:37:44.509Z,23.45
2023-05-09T13:40:15.192Z,23.39
2023-05-09T13:42:43.429Z,23.25
2023-05-09T13:45:12.563Z,23.04
2023-05-09T13:47:40.836Z,22.99
2023-05-09T13:50:09.452Z,22.89
2023-05-09T13:52:37.514Z,22.96
2023-05-09T13:55:06.328Z,22.94
2023-05-09T13:57:35.811Z,22.81
2023-05-09T14:00:05.083Z,22.74
2023-05-09T14:02:33.176Z,22.80
2023-05-09T14:05:02.966Z,22.92
2023-05-09T14:07:31.110Z,22.86
2023-05-09T14:10:11.317Z,22.79
2023-05-09T14:12:44.562Z,22.70
2023-05-09T14:15:12.875Z,22.60
2023-05-09T14:17:41.012Z,22.54
2023-05-09T14:20:10.648Z,22.48
2023-05-09T14:22:38.816Z,22.48
2023-05-09T14:25:07.733Z,22.51
2023-05-09T14:27:37.185Z,22.45
2023-05-09T14:30:08.656Z,22.36
2023-05-09T14:32:37.233Z,22.29
2023-05-09T14:35:06.001Z,22.33
2023-05-09T14:37:34.112Z,22.34
2023-05-09T14:40:05.452Z,22.27
2023-05-09T14:42:33.884Z,22.22
2023-05-09T14:45:01.967Z,22.25
2023-05-09T14:47:31.453Z,22.26
2023-05-09T14:50:00.124Z,22.21
2023-05-09T14:52:28.817Z,22.10
2023-05-09T14:54:56.955Z,22.07
2023-05-09T14:57:25.003Z,22.04
2023-05-09T14:59:53.203Z,21.98
2023-05-09T15:02:21.249Z,21.94
2023-05-09T15:04:51.323Z,21.86
2023-05-09T15:07:19.578Z,21.73
2023-05-09T15:09:47.711Z,21.63
2023-05-09T15:12:16.002Z,21.56
2023-05-09T15:14:44.080Z,21.58
2023-05-09T15:17:12.201Z,21.59
2023-05-09T15:19:41.759Z,21.52
2023-05-09T15:22:11.293Z,21.48
2023-05-09T15:24:42.659Z,21.51
2023-05-09T15:27:11.020Z,21.52
2023-05-09T15:29:41.094Z,21.43
2023-05-09T15:32:09.171Z,21.41
2023-05-09T15:34:37.958Z,21.36
2023-05-09T15:37:06.107Z,21.27
2023-05-09T15:39:36.127Z,21.26
2023-05-09T15:42:05.530Z,21.26
2023-05-09T15:44:34.300Z,21.29
2023-05-09T15:47:02.400Z,21.29
2023-05-09T15:49:30.477Z,21.26
2023-05-09T15:51:58.610Z,21.20
2023-05-09T15:54:27.634Z,21.17
2023-05-09T15:56:57.095Z,21.20
2023-05-09T15:59:25.609Z,21.20
2023-05-09T16:01:53.732Z,21.15
2023-05-09T16:04:21.963Z,21.07
2023-05-09T16:06:50.126Z,21.02
2023-05-09T16:09:18.873Z,20.98
2023-05-09T16:11:46.920Z,20.99
2023-05-09T16:14:16.420Z,20.94
2023-05-09T16:16:44.569Z,20.95
2023-05-09T16:19:13.007Z,21.01
2023-05-09T16:21:41.112Z,21.06
2023-05-09T16:24:09.417Z,21.05
2023-05-09T16:26:37.744Z,21.06
2023-05-09T16:29:05.830Z,21.10
2023-05-09T16:31:35.806Z,21.08
2023-05-09T16:34:04.191Z,21.12
2023-05-09T16:36:33.487Z,21.16
2023-05-09T16:39:02.006Z,21.18
2023-05-09T16:41:30.098Z,21.16
2023-05-09T16:43:58.704Z,21.14
2023-05-09T16:46:26.946Z,21.17
2023-05-09T16:48:56.712Z,21.22
2023-05-09T16:51:24.779Z,21.15
2023-05-09T16:53:52.826Z,21.08
2023-05-09T16:56:21.578Z,20.99
2023-05-09T16:58:49.998Z,20.92
2023-05-09T17:01:18.218Z,20.94
2023-05-09T17:03:46.348Z,20.93
2023-05-09T17:06:15.777Z,20.77
2023-05-09T17:08:43.912Z,20.60
2023-05-09T17:11:12.109Z,20.47
2023-05-09T17:13:40.879Z,20.39
2023-05-09T17:16:09.068Z,20.27
2023-05-09T17:18:38.246Z,20.14
2023-05-09T17:21:06.696Z,20.02
2023-05-09T17:23:36.148Z,19.91
2023-05-09T17:26:04.889Z,19.82
2023-05-09T17:28:33.015Z,19.76
2023-05-09T17:31:01.718Z,19.69
2023-05-09T17:33:30.127Z,19.63
2023-05-09T17:35:58.482Z,19.60
2023-05-09T17:38:26.561Z,19.58
2023-05-09T17:40:56.021Z,19.54
2023-05-09T17:43:24.252Z,19.53
2023-05-09T17:45:52.859Z,19.53
2023-05-09T17:48:21.227Z,19.53
2023-05-09T17:50:49.305Z,19.48
2023-05-09T17:53:17.519Z,19.45
2023-05-09T17:55:45.655Z,19.40
2023-05-09T17:58:15.835Z,19.35
2023-05-09T18:00:44.635Z,19.28
2023-05-09T18:03:12.922Z,19.18
2023-05-09T18:05:41.165Z,19.12
2023-05-09T18:08:09.228Z,19.06
2023-05-09T18:10:37.310Z,19.00
2023-05-09T18:13:05.456Z,18.96
2023-05-09T18:15:38.060Z,18.91
2023-05-09T18:18:06.868Z,18.87
2023-05-09T18:20:35.973Z,18.80
2023-05-09T18:23:04.137Z,18.73
2023-05-09T18:25:32.945Z,18.65
2023-05-09T18:28:01.026Z,18.58
2023-05-09T18:30:29.142Z,18.48
2023-05-09T18:33:00.408Z,18.41
2023-05-09T18:35:28.732Z,18.32
2023-05-09T18:37:56.836Z,18.24
2023-05-09T18:40:24.933Z,18.17
2023-05-09T18:42:53.061Z,18.09
2023-05-09T18:45:21.195Z,18.00
2023-05-09T18:47:49.276Z,17.91
2023-05-09T18:50:19.253Z,17.84
2023-05-09T18:52:47.309Z,17.76
2023-05-09T18:55:15.426Z,17.68
2023-05-09T18:57:43.548Z,17.56
2023-05-09T19:00:12.812Z,17.47
2023-05-09T19:02:41.059Z,17.39
2023-05-09T19:05:10.814Z,17.32
2023-05-09T19:07:40.499Z,17.25
2023-05-09T19:10:09.340Z,17.18
2023-05-09T19:12:40.226Z,17.12
2023-05-09T19:15:09.614Z,17.04
2023-05-09T19:17:38.014Z,16.98
2023-05-09T19:20:07.058Z,16.91
2023-05-09T19:22:36.199Z,16.85
2023-05-09T19:25:06.152Z,16.78
2023-05-09T19:27:34.217Z,16.71
2023-05-09T19:30:02.483Z,16.63
2023-05-09T19:32:30.715Z,16.54
2023-05-09T19:34:59.739Z,16.49
2023-05-09T19:37:27.927Z,16.45
2023-05-09T19:39:56.104Z,16.43
2023-05-09T19:42:25.664Z,16.38
2023-05-09T19:44:53.886Z,16.34
2023-05-09T19:47:21.986Z,16.31
2023-05-09T19:49:50.133Z,16.28
2023-05-09T19:52:18.562Z,16.24
2023-05-09T19:54:46.785Z,16.20
2023-05-09T19:57:14.835Z,16.15
2023-05-09T19:59:44.336Z,16.10
2023-05-09T20:02:12.415Z,16.05
2023-05-09T20:04:46.486Z,15.97
2023-05-09T20:07:14.758Z,15.93
2023-05-09T20:09:43.007Z,15.88
2023-05-09T20:12:11.265Z,15.83
2023-05-09T20:14:39.451Z,15.79
2023-05-09T20:17:08.960Z,15.73
2023-05-09T20:19:37.318Z,15.69
2023-05-09T20:22:05.455Z,15.65
2023-05-09T20:24:33.579Z,15.59
2023-05-09T20:27:02.532Z,15.55
2023-05-09T20:29:30.674Z,15.54
2023-05-09T20:31:58.847Z,15.53
2023-05-09T20:34:28.380Z,15.51
2023-05-09T20:36:56.463Z,15.47
2023-05-09T20:39:24.759Z,15.48
2023-05-09T20:41:53.210Z,15.46
2023-05-09T20:44:21.313Z,15.43
2023-05-09T20:46:49.431Z,15.41
2023-05-09T20:49:17.540Z,15.35
2023-05-09T20:51:47.044Z,15.31
2023-05-09T20:54:15.111Z,15.30
2023-05-09T20:56:43.289Z,15.26
2023-05-09T20:59:11.375Z,15.23
2023-05-09T21:01:40.294Z,15.22
2023-05-09T21:04:08.610Z,15.20
2023-05-09T21:06:36.745Z,15.18
2023-05-09T21:09:06.574Z,15.16
2023-05-09T21:11:34.890Z,15.15
2023-05-09T21:14:03.008Z,15.14
2023-05-09T21:16:31.171Z,15.14
2023-05-09T21:19:02.560Z,15.13
2023-05-09T21:21:31.494Z,15.12
2023-05-09T21:23:59.735Z,15.12
2023-05-09T21:26:29.164Z,15.10
2023-05-09T21:28:57.304Z,15.09
2023-05-09T21:31:25.481Z,15.06
2023-05-09T21:33:53.580Z,15.02
2023-05-09T21:36:21.637Z,15.00
2023-05-09T21:38:49.710Z,15.00
2023-05-09T21:41:17.790Z,14.99
2023-05-09T21:43:47.244Z,14.98
2023-05-09T21:46:15.343Z,14.96
2023-05-09T21:48:43.459Z,14.95
2023-05-09T21:51:12.339Z,14.94
2023-05-09T21:53:40.428Z,14.91
2023-05-09T21:56:09.088Z,14.90
2023-05-09T21:58:37.610Z,14.90
2023-05-09T22:01:07.115Z,14.88
2023-05-09T22:03:35.904Z,14.84
2023-05-09T22:06:04.077Z,14.82
2023-05-09T22:08:32.154Z,14.80
2023-05-09T22:11:00.225Z,14.79
2023-05-09T22:13:29.020Z,14.76
2023-05-09T22:15:57.246Z,14.76
2023-05-09T22:18:26.679Z,14.78
2023-05-09T22:20:54.732Z,14.77
2023-05-09T22:23:22.801Z,14.78
2023-05-09T22:25:50.865Z,14.76
2023-05-09T22:28:18.952Z,14.77
2023-05-09T22:30:47.064Z,14.72
2023-05-09T22:33:15.195Z,14.69
2023-05-09T22:35:44.696Z,14.66
2023-05-09T22:38:12.802Z,14.60
2023-05-09T22:40:40.847Z,14.57
2023-05-09T22:43:10.626Z,14.53
2023-05-09T22:45:38.830Z,14.47
2023-05-09T22:48:07.448Z,14.38
2023-05-09T22:50:35.561Z,14.32
2023-05-09T22:53:05.006Z,14.27
2023-05-09T22:55:33.111Z,14.23
2023-05-09T22:58:01.170Z,14.20
2023-05-09T23:00:29.376Z,14.15
2023-05-09T23:02:59.314Z,14.12
2023-05-09T23:05:27.621Z,14.10
2023-05-09T23:07:55.671Z,14.06
2023-05-09T23:10:25.167Z,14.01
2023-05-09T23:12:53.237Z,13.97
2023-05-09T23:15:21.449Z,13.93
2023-05-09T23:17:49.524Z,13.90
2023-05-09T23:20:17.944Z,13.87
2023-05-09T23:22:46.216Z,13.82
2023-05-09T23:28:56.306Z,13.77
2023-05-09T23:31:24.496Z,13.76
2023-05-09T23:33:52.554Z,13.75
2023-05-09T23:36:20.604Z,13.73
2023-05-09T23:38:48.679Z,13.70
2023-05-09T23:41:16.782Z,13.70
2023-05-09T23:43:44.841Z,13.69
2023-05-09T23:46:14.319Z,13.67
2023-05-09T23:48:42.457Z,13.64
2023-05-09T23:51:10.524Z,13.61
2023-05-09T23:53:38.608Z,13.58
2023-05-09T23:56:08.000Z,13.56
2023-05-09T23:58:36.085Z,13.53
